sensor_id;sensor_type;location;lat;lon;timestamp;temperature;humidity
32660;DHT22;19064;47.912;12.308;2022-08-30T00:00:53;15.70;99.90
32660;DHT22;19064;47.912;12.308;2022-08-30T00:03:34;15.60;99.90
32660;DHT22;19064;47.912;12.308;2022-08-30T00:06:01;15.60;99.90
32660;DHT22;19064;47.912;12.308;2022-08-30T00:08:30;15.60;99.90
32660;DHT22;19064;47.912;12.308;2022-08-30T00:10:57;15.70;99.90
32660;DHT22;19064;47.912;12.308;2022-08-30T00:13:23;15.70;99.90
32660;DHT22;19064;47.912;12.308;2022-08-30T00:15:51;15.80;99.90
32660;DHT22;19064;47.912;12.308;2022-08-30T00:18:19;15.80;99.90
32660;DHT22;19064;47.912;12.308;2022-08-30T00:20:49;15.80;99.90
32660;DHT22;19064;47.912;12.308;2022-08-30T00:23:16;15.70;99.90
32660;DHT22;19064;47.912;12.308;2022-08-30T00:25:43;15.60;99.90
32660;DHT22;19064;47.912;12.308;2022-08-30T00:28:10;15.50;99.90
32660;DHT22;19064;47.912;12.308;2022-08-30T00:30:38;15.40;99.90
32660;DHT22;19064;47.912;12.308;2022-08-30T00:33:05;15.50;99.90
32660;DHT22;19064;47.912;12.308;2022-08-30T00:35:32;15.50;99.90
32660;DHT22;19064;47.912;12.308;2022-08-30T00:38:00;15.50;99.90
32660;DHT22;19064;47.912;12.308;2022-08-30T00:40:27;15.50;99.90
32660;DHT22;19064;47.912;12.308;2022-08-30T00:42:55;15.60;99.90
32660;DHT22;19064;47.912;12.308;2022-08-30T00:45:24;15.60;99.90
32660;DHT22;19064;47.912;12.308;2022-08-30T00:47:53;15.60;99.90
32660;DHT22;19064;47.912;12.308;2022-08-30T00:50:24;15.60;99.90
32660;DHT22;19064;47.912;12.308;2022-08-30T00:52:53;15.70;99.90
32660;DHT22;19064;47.912;12.308;2022-08-30T00:55:22;15.90;99.90
32660;DHT22;19064;47.912;12.308;2022-08-30T00:57:52;15.80;99.90
32660;DHT22;19064;47.912;12.308;2022-08-30T01:00:19;15.70;99.90
32660;DHT22;19064;47.912;12.308;2022-08-30T01:02:46;15.60;99.90
32660;DHT22;19064;47.912;12.308;2022-08-30T01:05:13;15.50;99.90
32660;DHT22;19064;47.912;12.308;2022-08-30T01:07:41;15.40;99.90
32660;DHT22;19064;47.912;12.308;2022-08-30T01:10:13;15.50;99.90
32660;DHT22;19064;47.912;12.308;2022-08-30T01:12:44;15.50;99.90
32660;DHT22;19064;47.912;12.308;2022-08-30T01:15:12;15.60;99.90
32660;DHT22;19064;47.912;12.308;2022-08-30T01:17:40;15.70;99.90
32660;DHT22;19064;47.912;12.308;2022-08-30T01:20:10;15.70;99.90
32660;DHT22;19064;47.912;12.308;2022-08-30T01:22:41;15.70;99.90
32660;DHT22;19064;47.912;12.308;2022-08-30T01:25:11;15.70;99.90
32660;DHT22;19064;47.912;12.308;2022-08-30T01:27:42;15.60;99.90
32660;DHT22;19064;47.912;12.308;2022-08-30T01:30:11;15.50;99.90
32660;DHT22;19064;47.912;12.308;2022-08-30T01:32:42;15.50;99.90
32660;DHT22;19064;47.912;12.308;2022-08-30T01:35:11;15.40;99.90
32660;DHT22;19064;47.912;12.308;2022-08-30T01:37:38;15.40;99.90
32660;DHT22;19064;47.912;12.308;2022-08-30T01:40:06;15.40;99.90
32660;DHT22;19064;47.912;12.308;2022-08-30T01:42:35;15.40;99.90
32660;DHT22;19064;47.912;12.308;2022-08-30T01:45:03;15.40;99.90
32660;DHT22;19064;47.912;12.308;2022-08-30T01:47:30;15.40;99.90
32660;DHT22;19064;47.912;12.308;2022-08-30T01:49:57;15.40;99.90
32660;DHT22;19064;47.912;12.308;2022-08-30T01:52:25;15.30;99.90
32660;DHT22;19064;47.912;12.308;2022-08-30T01:54:52;15.30;99.90
32660;DHT22;19064;47.912;12.308;2022-08-30T01:57:21;15.20;99.90
32660;DHT22;19064;47.912;12.308;2022-08-30T01:59:49;15.30;99.90
32660;DHT22;19064;47.912;12.308;2022-08-30T02:02:19;15.20;99.90
32660;DHT22;19064;47.912;12.308;2022-08-30T02:04:47;15.20;99.90
32660;DHT22;19064;47.912;12.308;2022-08-30T02:07:14;15.20;99.90
32660;DHT22;19064;47.912;12.308;2022-08-30T02:09:41;15.20;99.90
32660;DHT22;19064;47.912;12.308;2022-08-30T02:12:08;15.20;99.90
32660;DHT22;19064;47.912;12.308;2022-08-30T02:14:35;15.10;99.90
32660;DHT22;19064;47.912;12.308;2022-08-30T02:17:05;15.10;99.90
32660;DHT22;19064;47.912;12.308;2022-08-30T02:19:32;15.10;99.90
32660;DHT22;19064;47.912;12.308;2022-08-30T02:21:59;15.10;99.90
32660;DHT22;19064;47.912;12.308;2022-08-30T02:24:26;15.10;99.90
32660;DHT22;19064;47.912;12.308;2022-08-30T02:26:53;15.00;99.90
32660;DHT22;19064;47.912;12.308;2022-08-30T02:29:21;15.00;99.90
32660;DHT22;19064;47.912;12.308;2022-08-30T02:31:49;15.00;99.90
32660;DHT22;19064;47.912;12.308;2022-08-30T02:34:18;15.10;99.90
32660;DHT22;19064;47.912;12.308;2022-08-30T02:36:45;15.10;99.90
32660;DHT22;19064;47.912;12.308;2022-08-30T02:39:13;15.10;99.90
32660;DHT22;19064;47.912;12.308;2022-08-30T02:41:40;15.20;99.90
32660;DHT22;19064;47.912;12.308;2022-08-30T02:44:08;15.30;99.90
32660;DHT22;19064;47.912;12.308;2022-08-30T02:46:35;15.30;99.90
32660;DHT22;19064;47.912;12.308;2022-08-30T02:49:02;15.30;99.90
32660;DHT22;19064;47.912;12.308;2022-08-30T02:51:31;15.30;99.90
32660;DHT22;19064;47.912;12.308;2022-08-30T02:53:57;15.20;99.90
32660;DHT22;19064;47.912;12.308;2022-08-30T02:56:25;15.10;99.90
32660;DHT22;19064;47.912;12.308;2022-08-30T02:58:53;15.00;99.90
32660;DHT22;19064;47.912;12.308;2022-08-30T03:01:20;14.90;99.90
32660;DHT22;19064;47.912;12.308;2022-08-30T03:03:47;14.80;99.90
32660;DHT22;19064;47.912;12.308;2022-08-30T03:06:15;14.70;99.90
32660;DHT22;19064;47.912;12.308;2022-08-30T03:08:43;14.70;99.90
32660;DHT22;19064;47.912;12.308;2022-08-30T03:11:10;14.60;99.90
32660;DHT22;19064;47.912;12.308;2022-08-30T03:13:38;14.60;99.90
32660;DHT22;19064;47.912;12.308;2022-08-30T03:16:05;14.60;99.90
32660;DHT22;19064;47.912;12.308;2022-08-30T03:18:31;14.60;99.90
32660;DHT22;19064;47.912;12.308;2022-08-30T03:20:58;14.60;99.90
32660;DHT22;19064;47.912;12.308;2022-08-30T03:23:25;14.60;99.90
32660;DHT22;19064;47.912;12.308;2022-08-30T03:25:54;14.70;99.90
32660;DHT22;19064;47.912;12.308;2022-08-30T03:28:21;14.70;99.90
32660;DHT22;19064;47.912;12.308;2022-08-30T03:30:49;14.80;99.90
32660;DHT22;19064;47.912;12.308;2022-08-30T03:33:16;14.90;99.90
32660;DHT22;19064;47.912;12.308;2022-08-30T03:35:43;15.00;99.90
32660;DHT22;19064;47.912;12.308;2022-08-30T03:38:09;14.90;99.90
32660;DHT22;19064;47.912;12.308;2022-08-30T03:40:36;14.90;99.90
32660;DHT22;19064;47.912;12.308;2022-08-30T03:43:05;14.90;99.90
32660;DHT22;19064;47.912;12.308;2022-08-30T03:45:32;14.90;99.90
32660;DHT22;19064;47.912;12.308;2022-08-30T03:47:59;15.00;99.90
32660;DHT22;19064;47.912;12.308;2022-08-30T03:50:27;15.00;99.90
32660;DHT22;19064;47.912;12.308;2022-08-30T03:52:55;15.00;99.90
32660;DHT22;19064;47.912;12.308;2022-08-30T03:55:21;15.10;99.90
32660;DHT22;19064;47.912;12.308;2022-08-30T03:57:48;15.00;99.90
32660;DHT22;19064;47.912;12.308;2022-08-30T04:00:17;14.90;99.90
32660;DHT22;19064;47.912;12.308;2022-08-30T04:02:44;14.90;99.90
32660;DHT22;19064;47.912;12.308;2022-08-30T04:05:11;14.90;99.90
32660;DHT22;19064;47.912;12.308;2022-08-30T04:07:38;14.90;99.90
32660;DHT22;19064;47.912;12.308;2022-08-30T04:10:07;14.90;99.90
32660;DHT22;19064;47.912;12.308;2022-08-30T04:12:35;14.90;99.90
32660;DHT22;19064;47.912;12.308;2022-08-30T04:15:02;15.00;99.90
32660;DHT22;19064;47.912;12.308;2022-08-30T04:17:30;15.00;99.90
32660;DHT22;19064;47.912;12.308;2022-08-30T04:19:57;14.90;99.90
32660;DHT22;19064;47.912;12.308;2022-08-30T04:22:23;14.80;99.90
32660;DHT22;19064;47.912;12.308;2022-08-30T04:24:51;14.70;99.90
32660;DHT22;19064;47.912;12.308;2022-08-30T04:27:17;14.60;99.90
32660;DHT22;19064;47.912;12.308;2022-08-30T04:29:45;14.60;99.90
32660;DHT22;19064;47.912;12.308;2022-08-30T04:32:12;14.50;99.90
32660;DHT22;19064;47.912;12.308;2022-08-30T04:34:40;14.40;99.90
32660;DHT22;19064;47.912;12.308;2022-08-30T04:37:07;14.20;99.90
32660;DHT22;19064;47.912;12.308;2022-08-30T04:39:34;14.00;99.90
32660;DHT22;19064;47.912;12.308;2022-08-30T04:42:00;14.00;99.90
32660;DHT22;19064;47.912;12.308;2022-08-30T04:44:28;14.00;99.90
32660;DHT22;19064;47.912;12.308;2022-08-30T04:46:55;14.10;99.90
32660;DHT22;19064;47.912;12.308;2022-08-30T04:49:23;14.20;99.90
32660;DHT22;19064;47.912;12.308;2022-08-30T04:51:51;14.20;99.90
32660;DHT22;19064;47.912;12.308;2022-08-30T04:54:18;14.30;99.90
32660;DHT22;19064;47.912;12.308;2022-08-30T04:56:45;14.40;99.90
32660;DHT22;19064;47.912;12.308;2022-08-30T04:59:11;14.60;99.90
32660;DHT22;19064;47.912;12.308;2022-08-30T05:01:38;14.70;99.90
32660;DHT22;19064;47.912;12.308;2022-08-30T05:04:05;14.80;99.90
32660;DHT22;19064;47.912;12.308;2022-08-30T05:06:32;14.80;99.90
32660;DHT22;19064;47.912;12.308;2022-08-30T05:09:00;14.80;99.90
32660;DHT22;19064;47.912;12.308;2022-08-30T05:11:28;14.90;99.90
32660;DHT22;19064;47.912;12.308;2022-08-30T05:13:54;14.80;99.90
32660;DHT22;19064;47.912;12.308;2022-08-30T05:16:21;14.90;99.90
32660;DHT22;19064;47.912;12.308;2022-08-30T05:18:50;15.00;99.90
32660;DHT22;19064;47.912;12.308;2022-08-30T05:21:19;15.10;99.90
32660;DHT22;19064;47.912;12.308;2022-08-30T05:23:47;15.10;99.90
32660;DHT22;19064;47.912;12.308;2022-08-30T05:26:18;15.10;99.90
32660;DHT22;19064;47.912;12.308;2022-08-30T05:28:45;15.20;99.90
32660;DHT22;19064;47.912;12.308;2022-08-30T05:31:14;15.20;99.90
32660;DHT22;19064;47.912;12.308;2022-08-30T05:33:42;15.30;99.90
32660;DHT22;19064;47.912;12.308;2022-08-30T05:36:10;15.30;99.90
32660;DHT22;19064;47.912;12.308;2022-08-30T05:38:37;15.50;99.90
32660;DHT22;19064;47.912;12.308;2022-08-30T05:41:06;15.50;99.90
32660;DHT22;19064;47.912;12.308;2022-08-30T05:43:34;15.50;99.90
32660;DHT22;19064;47.912;12.308;2022-08-30T05:46:03;15.50;99.90
32660;DHT22;19064;47.912;12.308;2022-08-30T05:48:31;15.50;99.90
32660;DHT22;19064;47.912;12.308;2022-08-30T05:51:03;15.50;99.90
32660;DHT22;19064;47.912;12.308;2022-08-30T05:53:30;15.80;99.90
32660;DHT22;19064;47.912;12.308;2022-08-30T05:55:59;15.80;99.90
32660;DHT22;19064;47.912;12.308;2022-08-30T05:58:26;15.80;99.90
32660;DHT22;19064;47.912;12.308;2022-08-30T06:00:54;15.80;99.90
32660;DHT22;19064;47.912;12.308;2022-08-30T06:03:20;15.90;99.90
32660;DHT22;19064;47.912;12.308;2022-08-30T06:05:47;15.90;99.90
32660;DHT22;19064;47.912;12.308;2022-08-30T06:08:14;15.90;99.90
32660;DHT22;19064;47.912;12.308;2022-08-30T06:10:41;16.10;99.90
32660;DHT22;19064;47.912;12.308;2022-08-30T06:13:08;16.20;99.90
32660;DHT22;19064;47.912;12.308;2022-08-30T06:15:36;16.30;99.90
32660;DHT22;19064;47.912;12.308;2022-08-30T06:18:04;16.40;99.90
32660;DHT22;19064;47.912;12.308;2022-08-30T06:20:31;16.50;99.90
32660;DHT22;19064;47.912;12.308;2022-08-30T06:22:57;16.50;99.90
32660;DHT22;19064;47.912;12.308;2022-08-30T06:25:24;16.50;99.90
32660;DHT22;19064;47.912;12.308;2022-08-30T06:27:51;16.70;99.90
32660;DHT22;19064;47.912;12.308;2022-08-30T06:30:18;16.80;99.90
32660;DHT22;19064;47.912;12.308;2022-08-30T06:32:45;16.90;99.90
32660;DHT22;19064;47.912;12.308;2022-08-30T06:35:13;17.30;99.90
32660;DHT22;19064;47.912;12.308;2022-08-30T06:37:39;17.30;99.90
32660;DHT22;19064;47.912;12.308;2022-08-30T06:40:08;17.30;99.90
32660;DHT22;19064;47.912;12.308;2022-08-30T06:42:35;17.30;99.90
32660;DHT22;19064;47.912;12.308;2022-08-30T06:45:03;17.30;99.90
32660;DHT22;19064;47.912;12.308;2022-08-30T06:47:30;17.40;99.90
32660;DHT22;19064;47.912;12.308;2022-08-30T06:49:57;17.40;99.90
32660;DHT22;19064;47.912;12.308;2022-08-30T06:52:26;17.50;99.90
32660;DHT22;19064;47.912;12.308;2022-08-30T06:54:53;17.40;99.90
32660;DHT22;19064;47.912;12.308;2022-08-30T06:57:20;17.50;99.90
32660;DHT22;19064;47.912;12.308;2022-08-30T06:59:47;17.70;99.90
32660;DHT22;19064;47.912;12.308;2022-08-30T07:02:14;17.70;99.90
32660;DHT22;19064;47.912;12.308;2022-08-30T07:04:41;17.80;99.90
32660;DHT22;19064;47.912;12.308;2022-08-30T07:07:09;17.80;99.90
32660;DHT22;19064;47.912;12.308;2022-08-30T07:09:37;17.90;99.90
32660;DHT22;19064;47.912;12.308;2022-08-30T07:12:08;18.00;99.90
32660;DHT22;19064;47.912;12.308;2022-08-30T07:14:35;18.10;99.90
32660;DHT22;19064;47.912;12.308;2022-08-30T07:17:02;18.10;99.90
32660;DHT22;19064;47.912;12.308;2022-08-30T07:19:50;18.30;99.90
32660;DHT22;19064;47.912;12.308;2022-08-30T07:22:15;18.40;99.90
32660;DHT22;19064;47.912;12.308;2022-08-30T07:24:43;18.40;99.90
32660;DHT22;19064;47.912;12.308;2022-08-30T07:27:10;18.40;99.90
32660;DHT22;19064;47.912;12.308;2022-08-30T07:29:37;18.50;99.90
32660;DHT22;19064;47.912;12.308;2022-08-30T07:32:04;18.70;99.90
32660;DHT22;19064;47.912;12.308;2022-08-30T07:34:32;18.80;99.90
32660;DHT22;19064;47.912;12.308;2022-08-30T07:36:59;18.90;99.90
32660;DHT22;19064;47.912;12.308;2022-08-30T07:39:26;19.00;99.90
32660;DHT22;19064;47.912;12.308;2022-08-30T07:41:54;19.00;99.90
32660;DHT22;19064;47.912;12.308;2022-08-30T07:44:21;19.00;99.90
32660;DHT22;19064;47.912;12.308;2022-08-30T07:46:48;19.00;99.90
32660;DHT22;19064;47.912;12.308;2022-08-30T07:49:15;19.20;99.90
32660;DHT22;19064;47.912;12.308;2022-08-30T07:51:42;19.40;99.90
32660;DHT22;19064;47.912;12.308;2022-08-30T07:54:09;19.50;99.90
32660;DHT22;19064;47.912;12.308;2022-08-30T07:56:36;19.50;99.90
32660;DHT22;19064;47.912;12.308;2022-08-30T07:59:04;19.70;99.90
32660;DHT22;19064;47.912;12.308;2022-08-30T08:01:31;19.70;99.90
32660;DHT22;19064;47.912;12.308;2022-08-30T08:03:59;19.80;99.90
32660;DHT22;19064;47.912;12.308;2022-08-30T08:06:27;19.90;99.90
32660;DHT22;19064;47.912;12.308;2022-08-30T08:08:55;20.10;99.90
32660;DHT22;19064;47.912;12.308;2022-08-30T08:11:28;20.10;99.90
32660;DHT22;19064;47.912;12.308;2022-08-30T08:13:57;20.20;99.90
32660;DHT22;19064;47.912;12.308;2022-08-30T08:16:33;20.30;99.90
32660;DHT22;19064;47.912;12.308;2022-08-30T08:19:03;20.30;99.90
32660;DHT22;19064;47.912;12.308;2022-08-30T08:21:35;20.30;99.90
32660;DHT22;19064;47.912;12.308;2022-08-30T08:24:03;20.40;99.90
32660;DHT22;19064;47.912;12.308;2022-08-30T08:26:33;20.40;99.90
32660;DHT22;19064;47.912;12.308;2022-08-30T08:29:01;20.40;99.90
32660;DHT22;19064;47.912;12.308;2022-08-30T08:31:29;20.40;99.90
32660;DHT22;19064;47.912;12.308;2022-08-30T08:33:56;20.40;99.90
32660;DHT22;19064;47.912;12.308;2022-08-30T08:36:24;20.60;99.90
32660;DHT22;19064;47.912;12.308;2022-08-30T08:38:52;20.70;99.90
32660;DHT22;19064;47.912;12.308;2022-08-30T08:41:28;20.80;99.90
32660;DHT22;19064;47.912;12.308;2022-08-30T08:43:57;20.90;99.90
32660;DHT22;19064;47.912;12.308;2022-08-30T08:46:29;21.00;99.90
32660;DHT22;19064;47.912;12.308;2022-08-30T08:49:02;21.20;99.90
32660;DHT22;19064;47.912;12.308;2022-08-30T08:51:31;21.30;99.90
32660;DHT22;19064;47.912;12.308;2022-08-30T08:54:21;21.40;99.90
32660;DHT22;19064;47.912;12.308;2022-08-30T08:56:49;21.60;99.90
32660;DHT22;19064;47.912;12.308;2022-08-30T08:59:16;21.70;99.90
32660;DHT22;19064;47.912;12.308;2022-08-30T09:01:46;21.70;99.90
32660;DHT22;19064;47.912;12.308;2022-08-30T09:04:21;21.90;99.90
32660;DHT22;19064;47.912;12.308;2022-08-30T09:06:52;21.90;99.90
32660;DHT22;19064;47.912;12.308;2022-08-30T09:09:23;22.00;99.90
32660;DHT22;19064;47.912;12.308;2022-08-30T09:11:52;22.00;99.90
32660;DHT22;19064;47.912;12.308;2022-08-30T09:14:22;22.10;99.90
32660;DHT22;19064;47.912;12.308;2022-08-30T09:16:56;22.10;99.90
32660;DHT22;19064;47.912;12.308;2022-08-30T09:19:34;22.20;99.90
32660;DHT22;19064;47.912;12.308;2022-08-30T09:22:04;22.40;99.90
32660;DHT22;19064;47.912;12.308;2022-08-30T09:24:42;22.60;99.90
32660;DHT22;19064;47.912;12.308;2022-08-30T09:27:15;22.80;99.90
32660;DHT22;19064;47.912;12.308;2022-08-30T09:29:50;23.00;99.90
32660;DHT22;19064;47.912;12.308;2022-08-30T09:32:24;23.00;99.90
32660;DHT22;19064;47.912;12.308;2022-08-30T09:34:51;23.20;99.90
32660;DHT22;19064;47.912;12.308;2022-08-30T09:37:34;23.20;99.90
32660;DHT22;19064;47.912;12.308;2022-08-30T09:40:08;23.40;99.90
32660;DHT22;19064;47.912;12.308;2022-08-30T09:42:36;23.40;99.90
32660;DHT22;19064;47.912;12.308;2022-08-30T09:45:04;23.40;99.90
32660;DHT22;19064;47.912;12.308;2022-08-30T09:47:39;23.40;99.90
32660;DHT22;19064;47.912;12.308;2022-08-30T09:50:09;23.30;99.90
32660;DHT22;19064;47.912;12.308;2022-08-30T09:52:44;23.30;99.90
32660;DHT22;19064;47.912;12.308;2022-08-30T09:55:32;23.40;99.90
32660;DHT22;19064;47.912;12.308;2022-08-30T09:58:07;23.40;99.90
32660;DHT22;19064;47.912;12.308;2022-08-30T10:00:39;23.30;99.90
32660;DHT22;19064;47.912;12.308;2022-08-30T10:03:15;23.30;99.90
32660;DHT22;19064;47.912;12.308;2022-08-30T10:05:51;23.30;99.90
32660;DHT22;19064;47.912;12.308;2022-08-30T10:08:30;23.30;99.90
32660;DHT22;19064;47.912;12.308;2022-08-30T10:11:04;23.40;99.90
32660;DHT22;19064;47.912;12.308;2022-08-30T10:13:43;23.40;99.90
32660;DHT22;19064;47.912;12.308;2022-08-30T10:16:19;23.30;99.90
32660;DHT22;19064;47.912;12.308;2022-08-30T10:18:53;23.30;99.90
32660;DHT22;19064;47.912;12.308;2022-08-30T10:21:30;23.30;99.90
32660;DHT22;19064;47.912;12.308;2022-08-30T10:24:02;23.40;99.90
32660;DHT22;19064;47.912;12.308;2022-08-30T10:26:34;23.60;99.90
32660;DHT22;19064;47.912;12.308;2022-08-30T10:29:06;23.70;99.90
32660;DHT22;19064;47.912;12.308;2022-08-30T10:31:39;23.70;99.90
32660;DHT22;19064;47.912;12.308;2022-08-30T10:34:13;23.70;99.90
32660;DHT22;19064;47.912;12.308;2022-08-30T10:36:44;23.70;99.90
32660;DHT22;19064;47.912;12.308;2022-08-30T10:39:16;23.60;99.90
32660;DHT22;19064;47.912;12.308;2022-08-30T10:41:48;23.60;99.90
32660;DHT22;19064;47.912;12.308;2022-08-30T10:44:19;23.60;99.90
32660;DHT22;19064;47.912;12.308;2022-08-30T10:46:57;23.70;99.90
32660;DHT22;19064;47.912;12.308;2022-08-30T10:49:30;23.80;99.90
32660;DHT22;19064;47.912;12.308;2022-08-30T10:52:18;23.80;99.90
32660;DHT22;19064;47.912;12.308;2022-08-30T10:54:49;23.90;99.90
32660;DHT22;19064;47.912;12.308;2022-08-30T10:57:19;24.00;99.90
32660;DHT22;19064;47.912;12.308;2022-08-30T10:59:50;24.00;99.90
32660;DHT22;19064;47.912;12.308;2022-08-30T11:05:36;24.00;99.90
32660;DHT22;19064;47.912;12.308;2022-08-30T11:08:14;24.10;99.90
32660;DHT22;19064;47.912;12.308;2022-08-30T11:10:51;24.20;99.90
32660;DHT22;19064;47.912;12.308;2022-08-30T11:13:23;24.10;99.90
32660;DHT22;19064;47.912;12.308;2022-08-30T11:15:54;24.10;99.90
32660;DHT22;19064;47.912;12.308;2022-08-30T11:18:23;24.20;99.90
32660;DHT22;19064;47.912;12.308;2022-08-30T11:20:54;24.10;99.90
32660;DHT22;19064;47.912;12.308;2022-08-30T11:23:28;24.10;99.90
32660;DHT22;19064;47.912;12.308;2022-08-30T11:25:58;24.10;99.90
32660;DHT22;19064;47.912;12.308;2022-08-30T11:31:35;24.10;99.90
32660;DHT22;19064;47.912;12.308;2022-08-30T11:34:02;24.20;99.90
32660;DHT22;19064;47.912;12.308;2022-08-30T11:39:56;24.30;99.90
32660;DHT22;19064;47.912;12.308;2022-08-30T11:42:32;24.20;99.90
32660;DHT22;19064;47.912;12.308;2022-08-30T11:48:06;24.20;99.90
32660;DHT22;19064;47.912;12.308;2022-08-30T11:50:45;24.20;99.90
32660;DHT22;19064;47.912;12.308;2022-08-30T11:53:19;24.30;99.90
32660;DHT22;19064;47.912;12.308;2022-08-30T11:55:59;24.30;99.90
32660;DHT22;19064;47.912;12.308;2022-08-30T11:58:50;24.40;99.90
32660;DHT22;19064;47.912;12.308;2022-08-30T12:01:32;24.30;99.90
32660;DHT22;19064;47.912;12.308;2022-08-30T12:04:04;24.30;99.90
32660;DHT22;19064;47.912;12.308;2022-08-30T12:06:47;24.30;99.90
32660;DHT22;19064;47.912;12.308;2022-08-30T12:12:55;24.40;99.90
32660;DHT22;19064;47.912;12.308;2022-08-30T12:18:14;24.40;99.90
32660;DHT22;19064;47.912;12.308;2022-08-30T12:20:59;24.40;99.90
32660;DHT22;19064;47.912;12.308;2022-08-30T12:23:34;24.50;99.90
32660;DHT22;19064;47.912;12.308;2022-08-30T12:26:14;24.40;99.90
32660;DHT22;19064;47.912;12.308;2022-08-30T12:28:44;24.40;99.90
32660;DHT22;19064;47.912;12.308;2022-08-30T12:31:18;24.40;99.90
32660;DHT22;19064;47.912;12.308;2022-08-30T12:33:47;24.40;99.90
32660;DHT22;19064;47.912;12.308;2022-08-30T12:36:33;24.50;99.90
32660;DHT22;19064;47.912;12.308;2022-08-30T12:39:09;24.50;99.90
32660;DHT22;19064;47.912;12.308;2022-08-30T12:41:36;24.50;99.90
32660;DHT22;19064;47.912;12.308;2022-08-30T12:44:10;24.50;99.90
32660;DHT22;19064;47.912;12.308;2022-08-30T12:46:41;24.60;99.90
32660;DHT22;19064;47.912;12.308;2022-08-30T12:49:13;24.50;99.90
32660;DHT22;19064;47.912;12.308;2022-08-30T12:51:42;24.60;99.90
32660;DHT22;19064;47.912;12.308;2022-08-30T12:54:17;24.50;99.90
32660;DHT22;19064;47.912;12.308;2022-08-30T12:56:59;24.50;99.90
32660;DHT22;19064;47.912;12.308;2022-08-30T12:59:50;24.60;99.90
32660;DHT22;19064;47.912;12.308;2022-08-30T13:02:21;24.40;99.90
32660;DHT22;19064;47.912;12.308;2022-08-30T13:04:51;24.40;99.90
32660;DHT22;19064;47.912;12.308;2022-08-30T13:07:28;24.50;99.90
32660;DHT22;19064;47.912;12.308;2022-08-30T13:10:13;24.50;99.90
32660;DHT22;19064;47.912;12.308;2022-08-30T13:12:58;24.50;99.90
32660;DHT22;19064;47.912;12.308;2022-08-30T13:15:31;24.60;99.90
32660;DHT22;19064;47.912;12.308;2022-08-30T13:18:16;24.60;99.90
32660;DHT22;19064;47.912;12.308;2022-08-30T13:20:45;24.60;99.90
32660;DHT22;19064;47.912;12.308;2022-08-30T13:23:21;24.60;99.90
32660;DHT22;19064;47.912;12.308;2022-08-30T13:25:48;24.70;99.90
32660;DHT22;19064;47.912;12.308;2022-08-30T13:28:15;24.70;99.90
32660;DHT22;19064;47.912;12.308;2022-08-30T13:30:43;24.70;99.90
32660;DHT22;19064;47.912;12.308;2022-08-30T13:33:10;24.70;99.90
32660;DHT22;19064;47.912;12.308;2022-08-30T13:35:36;24.70;99.90
32660;DHT22;19064;47.912;12.308;2022-08-30T13:38:03;24.80;99.90
32660;DHT22;19064;47.912;12.308;2022-08-30T13:40:30;24.90;99.90
32660;DHT22;19064;47.912;12.308;2022-08-30T13:42:57;24.80;99.90
32660;DHT22;19064;47.912;12.308;2022-08-30T13:45:24;24.80;99.90
32660;DHT22;19064;47.912;12.308;2022-08-30T13:47:52;24.80;99.90
32660;DHT22;19064;47.912;12.308;2022-08-30T13:50:19;24.90;99.90
32660;DHT22;19064;47.912;12.308;2022-08-30T13:52:46;24.90;99.90
32660;DHT22;19064;47.912;12.308;2022-08-30T13:55:13;25.00;99.90
32660;DHT22;19064;47.912;12.308;2022-08-30T13:57:40;25.00;99.90
32660;DHT22;19064;47.912;12.308;2022-08-30T14:00:10;24.90;99.90
32660;DHT22;19064;47.912;12.308;2022-08-30T14:02:38;24.90;99.90
32660;DHT22;19064;47.912;12.308;2022-08-30T14:05:08;25.00;99.90
32660;DHT22;19064;47.912;12.308;2022-08-30T14:07:35;25.00;99.90
32660;DHT22;19064;47.912;12.308;2022-08-30T14:10:02;24.90;99.90
32660;DHT22;19064;47.912;12.308;2022-08-30T14:12:29;25.00;99.90
32660;DHT22;19064;47.912;12.308;2022-08-30T14:14:56;25.00;99.90
32660;DHT22;19064;47.912;12.308;2022-08-30T14:17:23;25.00;99.90
32660;DHT22;19064;47.912;12.308;2022-08-30T14:19:54;25.00;99.90
32660;DHT22;19064;47.912;12.308;2022-08-30T14:22:22;25.00;99.90
32660;DHT22;19064;47.912;12.308;2022-08-30T14:24:49;25.00;99.90
32660;DHT22;19064;47.912;12.308;2022-08-30T14:27:16;24.90;99.90
32660;DHT22;19064;47.912;12.308;2022-08-30T14:29:43;24.80;99.90
32660;DHT22;19064;47.912;12.308;2022-08-30T14:32:09;24.70;99.90
32660;DHT22;19064;47.912;12.308;2022-08-30T14:34:36;24.60;99.90
32660;DHT22;19064;47.912;12.308;2022-08-30T14:37:03;24.60;99.90
32660;DHT22;19064;47.912;12.308;2022-08-30T14:39:32;24.60;99.90
32660;DHT22;19064;47.912;12.308;2022-08-30T14:41:59;24.60;99.90
32660;DHT22;19064;47.912;12.308;2022-08-30T14:44:26;24.70;99.90
32660;DHT22;19064;47.912;12.308;2022-08-30T14:46:53;24.70;99.90
32660;DHT22;19064;47.912;12.308;2022-08-30T14:49:21;24.90;99.90
32660;DHT22;19064;47.912;12.308;2022-08-30T14:51:48;24.90;99.90
32660;DHT22;19064;47.912;12.308;2022-08-30T14:54:17;24.90;99.90
32660;DHT22;19064;47.912;12.308;2022-08-30T14:56:45;24.90;99.90
32660;DHT22;19064;47.912;12.308;2022-08-30T14:59:13;24.80;99.90
32660;DHT22;19064;47.912;12.308;2022-08-30T15:01:41;24.70;99.90
32660;DHT22;19064;47.912;12.308;2022-08-30T15:04:08;24.70;99.90
32660;DHT22;19064;47.912;12.308;2022-08-30T15:06:37;24.60;99.90
32660;DHT22;19064;47.912;12.308;2022-08-30T15:09:05;24.60;99.90
32660;DHT22;19064;47.912;12.308;2022-08-30T15:11:33;24.60;99.90
32660;DHT22;19064;47.912;12.308;2022-08-30T15:14:01;24.60;99.90
32660;DHT22;19064;47.912;12.308;2022-08-30T15:16:30;24.60;99.90
32660;DHT22;19064;47.912;12.308;2022-08-30T15:18:58;24.60;99.90
32660;DHT22;19064;47.912;12.308;2022-08-30T15:21:27;24.60;99.90
32660;DHT22;19064;47.912;12.308;2022-08-30T15:23:55;24.60;99.90
32660;DHT22;19064;47.912;12.308;2022-08-30T15:26:22;24.80;99.90
32660;DHT22;19064;47.912;12.308;2022-08-30T15:28:50;24.80;99.90
32660;DHT22;19064;47.912;12.308;2022-08-30T15:31:20;24.80;99.90
32660;DHT22;19064;47.912;12.308;2022-08-30T15:33:47;24.80;99.90
32660;DHT22;19064;47.912;12.308;2022-08-30T15:36:13;24.80;99.90
32660;DHT22;19064;47.912;12.308;2022-08-30T15:38:40;24.80;99.90
32660;DHT22;19064;47.912;12.308;2022-08-30T15:41:10;24.90;99.90
32660;DHT22;19064;47.912;12.308;2022-08-30T15:43:38;24.90;99.90
32660;DHT22;19064;47.912;12.308;2022-08-30T15:46:15;24.90;99.90
32660;DHT22;19064;47.912;12.308;2022-08-30T15:48:45;24.80;99.90